createdAt,value
2018-07-20T00:00:13.927Z,56.86
2018-07-20T00:02:47.323Z,56.43
2018-07-20T00:05:20.703Z,57.55
2018-07-20T00:07:54.100Z,56.93
2018-07-20T00:10:27.508Z,57.60
2018-07-20T00:13:00.891Z,57.32
2018-07-20T00:15:34.283Z,57.23
2018-07-20T00:18:07.914Z,57.66
2018-07-20T00:20:41.313Z,57.23
2018-07-20T00:23:14.729Z,57.25
2018-07-20T00:25:48.123Z,57.29
2018-07-20T00:28:21.535Z,57.29
2018-07-20T00:30:54.953Z,56.99
2018-07-20T00:33:28.386Z,57.23
2018-07-20T00:36:01.735Z,57.68
2018-07-20T00:38:35.139Z,57.41
2018-07-20T00:41:08.609Z,57.04
2018-07-20T00:43:41.998Z,57.00
2018-07-20T00:46:15.413Z,57.57
2018-07-20T00:48:48.898Z,57.59
2018-07-20T00:51:22.279Z,58.19
2018-07-20T00:53:55.670Z,57.98
2018-07-20T00:56:29.082Z,58.06
2018-07-20T00:59:02.493Z,57.92
2018-07-20T01:01:35.880Z,58.10
2018-07-20T01:04:09.275Z,57.25
2018-07-20T01:06:42.640Z,57.28
2018-07-20T01:09:16.107Z,58.06
2018-07-20T01:11:49.475Z,58.53
2018-07-20T01:14:23.188Z,58.28
2018-07-20T01:16:56.620Z,57.80
2018-07-20T01:19:30.007Z,58.03
2018-07-20T01:22:03.455Z,57.97
2018-07-20T01:24:36.876Z,58.05
2018-07-20T01:27:10.272Z,58.74
2018-07-20T01:29:43.655Z,58.25
2018-07-20T01:32:17.028Z,57.72
2018-07-20T01:34:50.476Z,57.77
2018-07-20T01:37:23.838Z,57.56
2018-07-20T01:39:57.319Z,57.68
2018-07-20T01:42:30.705Z,57.72
2018-07-20T01:45:04.255Z,58.26
2018-07-20T01:47:37.894Z,57.71
2018-07-20T01:50:11.281Z,58.06
2018-07-20T01:52:44.652Z,58.02
2018-07-20T01:55:18.049Z,58.32
2018-07-20T01:57:51.448Z,58.51
2018-07-20T02:00:24.854Z,58.06
2018-07-20T02:02:58.237Z,58.19
2018-07-20T02:05:31.645Z,58.15
2018-07-20T02:08:05.061Z,58.06
2018-07-20T02:10:38.507Z,57.83
2018-07-20T02:13:11.955Z,57.86
2018-07-20T02:15:45.387Z,58.67
2018-07-20T02:18:18.831Z,58.28
2018-07-20T02:20:52.290Z,58.27
2018-07-20T02:23:25.701Z,58.56
2018-07-20T02:25:59.135Z,58.29
2018-07-20T02:28:32.536Z,58.15
2018-07-20T02:31:05.945Z,58.71
2018-07-20T02:33:39.351Z,58.83
2018-07-20T02:36:12.732Z,59.41
2018-07-20T02:38:46.248Z,58.95
2018-07-20T02:41:19.649Z,58.83
2018-07-20T02:43:53.072Z,58.51
2018-07-20T02:46:26.495Z,58.30
2018-07-20T02:48:59.987Z,58.44
2018-07-20T02:51:33.492Z,57.92
2018-07-20T02:54:06.922Z,58.25
2018-07-20T02:56:40.335Z,58.42
2018-07-20T02:59:13.815Z,59.15
2018-07-20T03:01:47.226Z,58.98
2018-07-20T03:04:20.636Z,58.82
2018-07-20T03:06:54.028Z,58.41
2018-07-20T03:09:27.467Z,58.74
2018-07-20T03:12:00.849Z,59.13
2018-07-20T03:14:34.256Z,59.15
2018-07-20T03:17:07.657Z,59.13
2018-07-20T03:19:41.081Z,58.85
2018-07-20T03:22:14.460Z,58.51
2018-07-20T03:24:47.880Z,58.98
2018-07-20T03:27:21.292Z,59.13
2018-07-20T03:29:54.810Z,58.74
2018-07-20T03:32:28.219Z,59.07
2018-07-20T03:35:01.645Z,59.08
2018-07-20T03:37:35.382Z,59.38
2018-07-20T03:40:08.828Z,59.20
2018-07-20T03:42:42.295Z,59.04
2018-07-20T03:45:15.689Z,59.06
2018-07-20T03:47:49.073Z,58.54
2018-07-20T03:50:22.479Z,59.35
2018-07-20T03:52:55.870Z,59.39
2018-07-20T03:55:29.296Z,59.34
2018-07-20T03:58:02.737Z,58.52
2018-07-20T04:00:37.661Z,59.48
2018-07-20T04:03:11.394Z,59.14
2018-07-20T04:05:44.868Z,58.93
2018-07-20T04:08:18.258Z,59.10
2018-07-20T04:10:51.689Z,59.17
2018-07-20T04:13:25.083Z,59.10
2018-07-20T04:15:58.515Z,59.03
2018-07-20T04:18:32.031Z,59.05
2018-07-20T04:21:05.579Z,59.04
2018-07-20T04:23:38.971Z,59.16
2018-07-20T04:26:18.351Z,59.39
2018-07-20T04:28:52.427Z,59.10
2018-07-20T04:31:25.813Z,58.98
2018-07-20T04:33:59.180Z,59.37
2018-07-20T04:36:32.683Z,59.14
2018-07-20T04:39:10.020Z,58.68
2018-07-20T04:41:43.964Z,59.48
2018-07-20T04:44:17.354Z,58.68
2018-07-20T04:46:50.760Z,58.75
2018-07-20T04:49:24.131Z,58.98
2018-07-20T04:51:57.579Z,58.54
2018-07-20T04:54:30.995Z,58.31
2018-07-20T04:57:04.475Z,57.68
2018-07-20T04:59:37.855Z,57.82
2018-07-20T05:02:11.334Z,58.24
2018-07-20T05:04:44.719Z,58.09
2018-07-20T05:07:18.117Z,58.33
2018-07-20T05:09:51.645Z,57.30
2018-07-20T05:12:25.030Z,57.66
2018-07-20T05:14:58.501Z,57.59
2018-07-20T05:17:31.931Z,57.22
2018-07-20T05:20:05.428Z,57.55
2018-07-20T05:22:39.449Z,57.51
2018-07-20T05:25:12.857Z,57.03
2018-07-20T05:27:46.250Z,57.12
2018-07-20T05:30:19.665Z,57.03
2018-07-20T05:32:53.039Z,57.37
2018-07-20T05:35:26.446Z,56.58
2018-07-20T05:37:59.855Z,56.67
2018-07-20T05:40:33.232Z,56.66
2018-07-20T05:43:06.783Z,55.88
2018-07-20T05:45:40.201Z,54.87
2018-07-20T05:48:13.574Z,55.49
2018-07-20T05:50:47.155Z,55.02
2018-07-20T05:53:20.632Z,56.08
2018-07-20T05:55:54.025Z,55.16
2018-07-20T05:58:27.462Z,55.20
2018-07-20T06:01:00.911Z,54.79
2018-07-20T06:03:34.303Z,54.42
2018-07-20T06:06:07.694Z,54.37
2018-07-20T06:08:41.069Z,55.14
2018-07-20T06:11:14.465Z,54.35
2018-07-20T06:13:47.907Z,54.11
2018-07-20T06:16:21.328Z,55.20
2018-07-20T06:18:54.708Z,54.04
2018-07-20T06:21:28.206Z,54.50
2018-07-20T06:24:01.580Z,53.83
2018-07-20T06:26:34.971Z,54.19
2018-07-20T06:29:08.372Z,54.07
2018-07-20T06:31:41.815Z,54.32
2018-07-20T06:34:15.207Z,54.01
2018-07-20T06:36:48.622Z,53.48
2018-07-20T06:39:22.030Z,53.62
2018-07-20T06:41:55.420Z,53.88
2018-07-20T06:44:29.581Z,53.42
2018-07-20T06:47:03.023Z,53.38
2018-07-20T06:49:36.524Z,53.88
2018-07-20T06:52:10.078Z,53.56
2018-07-20T06:54:43.505Z,52.55
2018-07-20T06:57:16.937Z,52.22
2018-07-20T06:59:50.867Z,52.77
2018-07-20T07:02:25.031Z,52.75
2018-07-20T07:04:58.592Z,52.32
2018-07-20T07:07:32.016Z,53.07
2018-07-20T07:10:06.188Z,52.47
2018-07-20T07:12:39.742Z,51.65
2018-07-20T07:15:13.130Z,52.01
2018-07-20T07:17:46.581Z,52.19
2018-07-20T07:20:19.996Z,52.07
2018-07-20T07:22:53.415Z,51.55
2018-07-20T07:25:26.817Z,50.76
2018-07-20T07:28:00.260Z,50.74
2018-07-20T07:30:33.668Z,50.50
2018-07-20T07:33:07.094Z,50.83
2018-07-20T07:35:40.498Z,50.10
2018-07-20T07:38:13.925Z,49.79
2018-07-20T07:40:47.291Z,50.27
2018-07-20T07:43:20.803Z,49.55
2018-07-20T07:45:54.162Z,49.51
2018-07-20T07:48:27.643Z,48.77
2018-07-20T07:51:01.030Z,49.10
2018-07-20T07:53:34.431Z,50.21
2018-07-20T07:56:07.853Z,48.80
2018-07-20T07:58:41.222Z,47.48
2018-07-20T08:01:14.589Z,47.54
2018-07-20T08:03:48.014Z,47.54
2018-07-20T08:06:21.395Z,47.31
2018-07-20T08:08:54.790Z,47.33
2018-07-20T08:11:28.155Z,46.89
2018-07-20T08:14:01.543Z,46.31
2018-07-20T08:16:34.916Z,46.11
2018-07-20T08:19:08.344Z,46.00
2018-07-20T08:21:41.709Z,45.74
2018-07-20T08:24:15.008Z,45.21
2018-07-20T08:26:48.339Z,44.88
2018-07-20T08:29:21.774Z,44.68
2018-07-20T08:31:55.033Z,44.10
2018-07-20T08:34:28.409Z,44.95
2018-07-20T08:37:01.750Z,43.85
2018-07-20T08:39:35.064Z,44.85
2018-07-20T08:42:08.433Z,43.30
2018-07-20T08:44:41.785Z,43.51
2018-07-20T08:47:15.107Z,43.68
2018-07-20T08:49:48.420Z,42.93
2018-07-20T08:52:21.851Z,42.00
2018-07-20T08:54:55.138Z,42.37
2018-07-20T08:57:28.553Z,43.30
2018-07-20T09:00:01.941Z,42.38
2018-07-20T09:02:35.219Z,41.62
2018-07-20T09:05:08.567Z,42.82
2018-07-20T09:07:42.973Z,41.49
2018-07-20T09:10:16.331Z,41.64
2018-07-20T09:12:49.647Z,41.82
2018-07-20T09:15:22.956Z,41.42
2018-07-20T09:17:57.079Z,42.07
2018-07-20T09:20:30.447Z,41.24
2018-07-20T09:23:03.847Z,41.42
2018-07-20T09:25:37.172Z,40.23
2018-07-20T09:28:10.693Z,40.92
2018-07-20T09:30:43.996Z,41.12
2018-07-20T09:33:17.336Z,42.00
2018-07-20T09:35:50.656Z,41.84
2018-07-20T09:38:23.988Z,40.32
2018-07-20T09:40:58.374Z,41.47
2018-07-20T09:43:31.743Z,40.06
2018-07-20T09:46:05.156Z,40.07
2018-07-20T09:48:38.484Z,39.58
2018-07-20T09:51:11.794Z,39.30
2018-07-20T09:53:45.170Z,39.62
2018-07-20T09:56:18.693Z,38.66
2018-07-20T09:58:52.367Z,39.12
2018-07-20T10:01:26.544Z,39.47
2018-07-20T10:03:59.907Z,39.23
2018-07-20T10:06:33.281Z,40.36
2018-07-20T10:09:09.866Z,38.09
2018-07-20T10:11:43.248Z,38.75
2018-07-20T10:14:16.680Z,38.58
2018-07-20T10:16:50.504Z,37.46
2018-07-20T10:24:16.209Z,36.30
2018-07-20T10:26:50.163Z,36.95
2018-07-20T10:29:23.578Z,37.31
2018-07-20T10:31:57.006Z,34.92
2018-07-20T10:34:30.546Z,35.41
2018-07-20T10:37:04.052Z,31.76
2018-07-20T10:39:37.543Z,34.40
2018-07-20T10:42:11.058Z,33.53
2018-07-20T10:44:44.580Z,32.39
2018-07-20T10:47:17.991Z,32.20
2018-07-20T10:49:51.438Z,30.75
2018-07-20T10:52:24.825Z,31.49
2018-07-20T10:54:58.498Z,33.20
2018-07-20T10:57:32.280Z,33.12
2018-07-20T11:00:06.121Z,32.18
2018-07-20T11:02:39.494Z,32.31
2018-07-20T11:05:12.945Z,31.51
2018-07-20T11:07:46.342Z,29.79
2018-07-20T11:10:19.865Z,30.24
2018-07-20T11:12:53.878Z,31.28
2018-07-20T11:15:27.399Z,32.80
2018-07-20T11:18:00.818Z,32.44
2018-07-20T11:20:34.955Z,32.68
2018-07-20T11:23:08.355Z,32.84
2018-07-20T11:25:41.857Z,31.67
2018-07-20T11:28:15.316Z,31.04
2018-07-20T11:30:48.855Z,30.71
2018-07-20T11:33:22.245Z,29.76
2018-07-20T11:35:55.716Z,30.80
2018-07-20T11:38:29.162Z,31.12
2018-07-20T11:41:02.579Z,30.24
2018-07-20T11:43:36.350Z,29.42
2018-07-20T11:46:10.610Z,30.30
2018-07-20T11:48:43.987Z,31.19
2018-07-20T11:51:18.076Z,30.36
2018-07-20T11:53:51.463Z,29.28
2018-07-20T11:56:24.889Z,29.44
2018-07-20T11:58:58.310Z,28.65
2018-07-20T12:01:31.718Z,29.94
2018-07-20T12:04:05.226Z,29.58
2018-07-20T12:06:38.640Z,29.95
2018-07-20T12:09:12.771Z,30.48
2018-07-20T12:11:46.195Z,29.41
2018-07-20T12:14:20.232Z,29.73
2018-07-20T12:16:53.680Z,30.47
2018-07-20T12:19:27.103Z,29.30
2018-07-20T12:22:00.532Z,29.18
2018-07-20T12:24:33.924Z,29.27
2018-07-20T12:27:07.560Z,30.14
2018-07-20T12:29:41.071Z,28.77
2018-07-20T12:32:14.515Z,30.31
2018-07-20T12:34:48.008Z,30.88
2018-07-20T12:37:21.408Z,29.82
2018-07-20T12:39:54.815Z,29.89
2018-07-20T12:42:28.245Z,30.68
2018-07-20T12:45:01.653Z,29.24
2018-07-20T12:47:35.086Z,29.37
2018-07-20T12:50:09.143Z,29.91
2018-07-20T12:52:42.647Z,29.91
2018-07-20T12:55:16.051Z,28.77
2018-07-20T12:57:49.538Z,28.80
2018-07-20T13:00:23.075Z,28.72
2018-07-20T13:02:56.485Z,30.31
2018-07-20T13:05:29.887Z,29.77
2018-07-20T13:08:03.295Z,30.44
2018-07-20T13:10:39.274Z,29.42
2018-07-20T13:13:12.681Z,29.39
2018-07-20T13:15:46.114Z,29.60
2018-07-20T13:18:19.525Z,29.72
2018-07-20T13:20:53.485Z,28.41
2018-07-20T13:23:27.346Z,28.39
2018-07-20T13:26:00.844Z,28.18
2018-07-20T13:28:34.769Z,28.51
2018-07-20T13:31:08.300Z,28.26
2018-07-20T13:33:41.868Z,27.87
2018-07-20T13:36:15.367Z,27.58
2018-07-20T13:38:48.771Z,28.03
2018-07-20T13:41:22.182Z,28.78
2018-07-20T13:43:55.591Z,28.74
2018-07-20T13:46:28.987Z,28.10
2018-07-20T13:49:02.966Z,27.59
2018-07-20T13:51:36.435Z,27.70
2018-07-20T13:54:09.925Z,27.18
2018-07-20T13:56:43.401Z,28.17
2018-07-20T13:59:16.843Z,28.57
2018-07-20T14:01:50.291Z,27.64
2018-07-20T14:04:23.839Z,28.34
2018-07-20T14:06:57.310Z,27.18
2018-07-20T14:09:30.720Z,28.19
2018-07-20T14:12:04.264Z,27.96
2018-07-20T14:14:37.649Z,28.18
2018-07-20T14:17:11.344Z,27.85
2018-07-20T14:19:44.775Z,27.42
2018-07-20T14:22:18.774Z,29.92
2018-07-20T14:24:52.357Z,28.27
2018-07-20T14:27:25.808Z,28.08
2018-07-20T14:29:59.206Z,28.21
2018-07-20T14:32:33.083Z,27.78
2018-07-20T14:35:06.589Z,30.36
2018-07-20T14:37:40.127Z,29.88
2018-07-20T14:40:13.515Z,28.92
2018-07-20T14:42:46.917Z,28.83
2018-07-20T14:45:20.323Z,28.46
2018-07-20T14:47:53.841Z,28.97
2018-07-20T14:50:27.296Z,30.13
2018-07-20T14:53:00.729Z,28.33
2018-07-20T14:55:34.148Z,27.96
2018-07-20T14:58:07.574Z,28.51
2018-07-20T15:00:40.959Z,27.79
2018-07-20T15:03:14.441Z,28.18
2018-07-20T15:05:47.816Z,28.91
2018-07-20T15:08:21.250Z,29.08
2018-07-20T15:10:54.782Z,29.55
2018-07-20T15:13:28.231Z,29.48
2018-07-20T15:16:01.620Z,28.12
2018-07-20T15:18:35.166Z,28.07
2018-07-20T15:21:08.667Z,27.40
2018-07-20T15:23:42.082Z,26.54
2018-07-20T15:26:15.452Z,27.37
2018-07-20T15:28:48.888Z,30.03
2018-07-20T15:31:22.356Z,28.75
2018-07-20T15:33:55.866Z,29.37
2018-07-20T15:36:29.287Z,28.56
2018-07-20T15:39:02.863Z,27.85
2018-07-20T15:41:36.383Z,28.53
2018-07-20T15:44:09.803Z,28.35
2018-07-20T15:46:43.342Z,29.12
2018-07-20T15:49:17.780Z,29.10
2018-07-20T15:54:25.841Z,29.20
2018-07-20T15:56:59.563Z,29.33
2018-07-20T15:59:33.780Z,31.04
2018-07-20T16:02:07.631Z,28.35
2018-07-20T16:04:41.841Z,28.84
2018-07-20T16:07:15.611Z,29.87
2018-07-20T16:09:49.625Z,28.56
2018-07-20T16:12:23.981Z,28.63
2018-07-20T16:14:57.900Z,29.30
2018-07-20T16:17:31.884Z,28.32
2018-07-20T16:20:06.321Z,28.58
2018-07-20T16:22:40.185Z,28.14
2018-07-20T16:25:14.292Z,27.44
2018-07-20T16:27:48.465Z,27.92
2018-07-20T16:30:22.296Z,27.68
2018-07-20T16:32:57.432Z,27.49
2018-07-20T16:35:31.342Z,27.43
2018-07-20T16:38:05.334Z,28.27
2018-07-20T16:40:39.522Z,27.76
2018-07-20T16:43:13.414Z,27.34
2018-07-20T16:45:47.669Z,28.65
2018-07-20T16:48:21.946Z,27.51
2018-07-20T16:50:55.894Z,28.80
2018-07-20T16:53:29.927Z,29.82
2018-07-20T16:56:04.674Z,28.96
2018-07-20T16:58:38.720Z,28.74
2018-07-20T17:01:12.596Z,28.85
2018-07-20T17:03:46.704Z,28.43
2018-07-20T17:06:20.526Z,27.36
2018-07-20T17:08:54.599Z,27.72
2018-07-20T17:11:28.671Z,27.81
2018-07-20T17:14:02.878Z,27.74
2018-07-20T17:16:37.344Z,28.10
2018-07-20T17:19:11.446Z,27.62
2018-07-20T17:21:45.782Z,27.64
2018-07-20T17:24:20.477Z,29.05
2018-07-20T17:26:54.416Z,27.76
2018-07-20T17:29:28.507Z,28.48
2018-07-20T17:32:02.292Z,28.37
2018-07-20T17:34:36.881Z,28.17
2018-07-20T17:37:10.936Z,28.62
2018-07-20T17:39:50.451Z,28.03
2018-07-20T17:42:24.576Z,29.33
2018-07-20T17:44:58.463Z,29.89
2018-07-20T17:47:32.323Z,29.46
2018-07-20T17:50:09.332Z,29.59
2018-07-20T17:52:44.862Z,29.60
2018-07-20T17:55:21.099Z,30.38
2018-07-20T17:57:55.074Z,30.69
2018-07-20T18:00:29.290Z,31.14
2018-07-20T18:03:04.093Z,30.71
2018-07-20T18:05:38.880Z,31.10
2018-07-20T18:08:12.479Z,31.16
2018-07-20T18:10:46.157Z,32.00
2018-07-20T18:13:19.799Z,30.96
2018-07-20T18:15:53.231Z,31.34
2018-07-20T18:18:26.735Z,32.98
2018-07-20T18:21:00.140Z,32.27
2018-07-20T18:23:34.315Z,33.56
2018-07-20T18:26:08.049Z,33.67
2018-07-20T18:28:41.965Z,33.54
2018-07-20T18:31:15.878Z,33.90
2018-07-20T18:33:50.351Z,34.42
2018-07-20T18:36:24.013Z,35.57
2018-07-20T18:38:58.620Z,35.40
2018-07-20T18:41:33.130Z,35.24
2018-07-20T18:44:06.851Z,34.65
2018-07-20T18:46:40.273Z,35.07
2018-07-20T18:49:14.666Z,34.80
2018-07-20T18:51:48.756Z,34.75
2018-07-20T18:54:22.929Z,35.12
2018-07-20T18:56:56.783Z,34.47
2018-07-20T18:59:30.593Z,34.94
2018-07-20T19:02:04.017Z,35.96
2018-07-20T19:04:38.213Z,34.42
2018-07-20T19:07:12.320Z,34.75
2018-07-20T19:09:47.800Z,34.95
2018-07-20T19:12:22.361Z,34.86
2018-07-20T19:14:57.247Z,34.77
2018-07-20T19:17:31.951Z,34.94
2018-07-20T19:20:06.164Z,35.17
2018-07-20T19:22:40.452Z,35.49
2018-07-20T19:25:14.201Z,35.85
2018-07-20T19:27:48.706Z,35.97
2018-07-20T19:30:22.609Z,36.25
2018-07-20T19:32:56.068Z,35.68
2018-07-20T19:35:29.702Z,36.20
2018-07-20T19:38:03.141Z,35.66
2018-07-20T19:40:36.548Z,35.95
2018-07-20T19:43:09.927Z,35.85
2018-07-20T19:45:43.324Z,35.78
2018-07-20T19:48:16.739Z,35.37
2018-07-20T19:50:50.669Z,35.92
2018-07-20T19:53:24.615Z,35.88
2018-07-20T19:55:58.515Z,35.74
2018-07-20T19:58:32.495Z,35.77
2018-07-20T20:01:06.826Z,35.82
2018-07-20T20:03:40.873Z,35.04
2018-07-20T20:06:14.648Z,35.82
2018-07-20T20:08:48.056Z,37.86
2018-07-20T20:11:22.497Z,35.33
2018-07-20T20:13:56.503Z,36.23
2018-07-20T20:16:30.269Z,35.90
2018-07-20T20:19:04.171Z,35.42
2018-07-20T20:21:38.068Z,35.90
2018-07-20T20:24:11.914Z,36.17
2018-07-20T20:26:47.016Z,35.70
2018-07-20T20:29:21.430Z,35.85
2018-07-20T20:31:56.311Z,35.93
2018-07-20T20:34:30.787Z,36.45
2018-07-20T20:37:05.086Z,36.79
2018-07-20T20:39:38.589Z,36.13
2018-07-20T20:42:12.023Z,36.29
2018-07-20T20:44:45.413Z,36.91
2018-07-20T20:47:34.455Z,36.67
2018-07-20T20:50:09.093Z,36.68
2018-07-20T20:52:42.516Z,36.68
2018-07-20T20:55:16.056Z,37.44
2018-07-20T20:57:49.451Z,37.08
2018-07-20T21:00:23.779Z,37.27
2018-07-20T21:02:58.404Z,37.57
2018-07-20T21:05:33.070Z,36.99
2018-07-20T21:08:08.463Z,37.16
2018-07-20T21:10:43.800Z,37.20
2018-07-20T21:13:18.410Z,37.46
2018-07-20T21:15:53.125Z,38.98
2018-07-20T21:18:27.291Z,39.99
2018-07-20T21:21:00.824Z,39.17
2018-07-20T21:23:34.234Z,39.36
2018-07-20T21:26:08.485Z,39.25
2018-07-20T21:28:45.125Z,39.20
2018-07-20T21:31:21.272Z,39.93
2018-07-20T21:33:55.947Z,40.17
2018-07-20T21:36:30.513Z,40.44
2018-07-20T21:39:06.357Z,41.16
2018-07-20T21:41:40.379Z,41.21
2018-07-20T21:44:13.876Z,41.22
2018-07-20T21:46:47.368Z,41.12
2018-07-20T21:49:20.765Z,41.43
2018-07-20T21:51:54.302Z,41.54
2018-07-20T21:54:27.833Z,42.12
2018-07-20T21:57:02.080Z,41.95
2018-07-20T21:59:35.534Z,42.40
2018-07-20T22:02:08.947Z,42.76
2018-07-20T22:04:42.835Z,42.81
2018-07-20T22:07:16.227Z,42.97
2018-07-20T22:09:50.817Z,43.48
2018-07-20T22:12:24.208Z,43.43
2018-07-20T22:14:57.652Z,43.75
2018-07-20T22:17:31.824Z,43.71
2018-07-20T22:20:06.574Z,43.97
2018-07-20T22:22:40.528Z,44.67
2018-07-20T22:25:14.509Z,44.49
2018-07-20T22:27:47.955Z,44.68
2018-07-20T22:30:21.438Z,45.14
2018-07-20T22:32:55.034Z,45.41
2018-07-20T22:35:28.957Z,44.66
2018-07-20T22:38:03.519Z,44.59
2018-07-20T22:40:38.115Z,44.72
2018-07-20T22:43:13.165Z,45.72
2018-07-20T22:45:47.716Z,45.38
2018-07-20T22:48:22.134Z,45.03
2018-07-20T22:50:56.817Z,45.19
2018-07-20T22:53:31.958Z,45.17
2018-07-20T22:56:06.403Z,45.35
2018-07-20T22:58:40.972Z,45.39
2018-07-20T23:01:15.507Z,45.94
2018-07-20T23:03:50.305Z,46.03
2018-07-20T23:06:24.822Z,45.11
2018-07-20T23:09:00.258Z,45.08
2018-07-20T23:11:35.049Z,45.60
2018-07-20T23:14:09.563Z,46.09
2018-07-20T23:16:44.284Z,46.40
2018-07-20T23:19:18.889Z,47.13
2018-07-20T23:21:53.442Z,46.92
2018-07-20T23:24:28.104Z,47.46
2018-07-20T23:27:02.949Z,47.59
2018-07-20T23:29:37.788Z,47.92
2018-07-20T23:32:12.497Z,48.60
2018-07-20T23:34:46.944Z,48.13
2018-07-20T23:37:21.540Z,48.77
2018-07-20T23:39:56.914Z,48.41
2018-07-20T23:42:32.230Z,48.48
2018-07-20T23:45:08.075Z,48.44
2018-07-20T23:47:43.301Z,49.08
2018-07-20T23:50:18.214Z,48.97
2018-07-20T23:52:52.666Z,49.06
2018-07-20T23:55:27.358Z,49.89
2018-07-20T23:58:02.047Z,49.42
